createdAt,value
2023-01-10T07:41:10.311Z,4.58
2023-01-10T07:43:13.036Z,4.58
2023-01-10T07:45:15.490Z,4.05
2023-01-10T07:47:17.876Z,4.07
2023-01-10T07:49:20.529Z,4.11
2023-01-10T07:51:23.053Z,4.04
2023-01-10T07:53:27.296Z,4.09
2023-01-10T07:55:30.398Z,4.05
2023-01-10T07:57:32.793Z,4.11
2023-01-10T07:59:35.076Z,4.08
2023-01-10T08:01:37.650Z,4.02
2023-01-10T08:03:40.425Z,4.06
2023-01-10T08:05:43.589Z,4.19
2023-01-10T08:07:45.879Z,4.12
2023-01-10T08:09:48.487Z,4.13
2023-01-10T08:11:50.833Z,4.00
2023-01-10T08:13:53.716Z,4.14
2023-01-10T08:15:56.782Z,4.02
2023-01-10T08:18:04.846Z,4.07
2023-01-10T08:20:08.135Z,3.96
2023-01-10T08:22:11.019Z,3.97
2023-01-10T08:24:13.442Z,3.97
2023-01-10T08:26:15.769Z,3.99
2023-01-10T08:28:19.001Z,3.86
2023-01-10T08:30:21.430Z,3.95
2023-01-10T08:32:23.726Z,3.90
2023-01-10T08:34:26.631Z,3.92
2023-01-10T08:36:30.130Z,3.86
2023-01-10T08:38:32.498Z,3.91
2023-01-10T08:40:35.594Z,3.95
2023-01-10T08:42:37.918Z,3.99
2023-01-10T08:44:40.286Z,3.87
2023-01-10T08:46:43.052Z,3.94
2023-01-10T08:48:45.721Z,3.90
2023-01-10T08:52:04.553Z,4.16
2023-01-10T09:26:13.501Z,3.93
2023-01-10T09:28:16.891Z,3.93
2023-01-10T09:30:19.285Z,3.54
2023-01-10T09:32:21.701Z,3.54
2023-01-10T09:34:25.035Z,3.50
2023-01-10T09:36:27.561Z,3.50
2023-01-10T09:38:29.987Z,3.54
2023-01-10T09:40:54.283Z,3.62
2023-01-10T09:43:16.875Z,3.76
2023-01-10T09:45:42.548Z,3.74
2023-01-10T09:47:52.020Z,4.00
2023-01-10T09:50:15.431Z,3.94
2023-01-10T09:52:27.476Z,3.92
2023-01-10T09:54:35.491Z,3.67
2023-01-10T09:56:42.792Z,3.51
2023-01-10T10:02:57.987Z,3.51
2023-01-10T10:05:00.820Z,3.51
2023-01-10T10:07:06.926Z,3.52
2023-01-10T10:09:15.260Z,3.52
2023-01-10T10:11:19.228Z,3.53
2023-01-10T10:13:35.373Z,3.55
2023-01-10T10:15:48.026Z,3.71
2023-01-10T10:18:07.245Z,3.71
2023-01-10T10:20:19.603Z,3.65
2023-01-10T10:22:24.558Z,3.67
2023-01-10T10:24:42.575Z,3.55
2023-01-10T10:26:53.853Z,3.47
2023-01-10T10:29:14.602Z,3.39
2023-01-10T10:31:36.771Z,3.54
2023-01-10T10:33:51.453Z,3.47
2023-01-10T10:36:01.204Z,3.42
2023-01-10T10:38:17.686Z,3.47
2023-01-10T10:40:32.561Z,3.49
2023-01-10T10:42:41.772Z,3.47
2023-01-10T10:44:55.940Z,3.42
2023-01-10T10:46:59.596Z,3.48
2023-01-10T10:49:18.632Z,3.59
2023-01-10T10:51:49.721Z,3.44
2023-01-10T10:53:52.214Z,3.48
2023-01-10T10:55:55.097Z,3.45
2023-01-10T10:58:01.235Z,3.44
2023-01-10T11:00:05.465Z,3.54
2023-01-10T11:02:28.396Z,3.51
2023-01-10T11:04:31.765Z,3.64
2023-01-10T11:06:38.591Z,3.89
2023-01-10T11:08:45.649Z,3.96
2023-01-10T11:10:55.463Z,4.10
2023-01-10T11:13:01.877Z,4.16
2023-01-10T11:15:04.706Z,4.12
2023-01-10T11:17:20.360Z,4.21
2023-01-10T11:19:27.013Z,4.22
2023-01-10T11:21:29.390Z,4.21
2023-01-10T11:23:53.066Z,4.22
2023-01-10T11:25:56.618Z,4.14
2023-01-10T11:28:01.487Z,4.24
2023-01-10T11:30:09.384Z,4.23
2023-01-10T11:32:18.208Z,4.23
2023-01-10T11:34:30.877Z,4.24
2023-01-10T11:36:53.769Z,4.24
2023-01-10T11:39:01.679Z,4.21
2023-01-10T11:41:25.021Z,4.27
2023-01-10T11:43:27.606Z,4.32
2023-01-10T11:45:32.897Z,4.34
2023-01-10T11:47:41.654Z,4.29
2023-01-10T11:49:50.217Z,4.33
2023-01-10T11:51:58.534Z,4.39
2023-01-10T11:54:11.031Z,4.49
2023-01-10T11:56:24.210Z,4.39
2023-01-10T11:58:32.969Z,4.43
2023-01-10T12:00:41.151Z,4.62
2023-01-10T12:02:45.432Z,4.73
2023-01-10T12:04:51.322Z,4.76
2023-01-10T12:06:57.614Z,4.80
2023-01-10T12:09:00.367Z,4.85
2023-01-10T12:11:19.362Z,4.81
2023-01-10T12:13:21.665Z,4.75
2023-01-10T12:15:26.021Z,4.60
2023-01-10T12:17:35.172Z,4.62
2023-01-10T12:19:37.456Z,4.56
2023-01-10T12:21:42.879Z,4.59
2023-01-10T12:23:47.703Z,4.61
2023-01-10T12:25:55.082Z,4.62
2023-01-10T12:28:01.247Z,4.68
2023-01-10T12:30:17.143Z,4.76
2023-01-10T12:32:29.460Z,4.67
2023-01-10T12:34:41.962Z,4.70
2023-01-10T12:37:08.253Z,4.60
2023-01-10T12:39:23.240Z,4.71
2023-01-10T12:41:51.833Z,4.73
2023-01-10T12:44:27.556Z,4.72
2023-01-10T12:47:05.196Z,4.61
2023-01-10T12:49:26.504Z,4.62
2023-01-10T12:51:29.918Z,4.66
2023-01-10T12:53:39.200Z,4.72
2023-01-10T12:55:44.130Z,4.73
2023-01-10T12:57:53.895Z,4.64
2023-01-10T12:59:59.151Z,4.79
2023-01-10T13:02:02.412Z,4.81
2023-01-10T13:04:14.026Z,4.79
2023-01-10T13:06:25.640Z,4.66
2023-01-10T13:08:36.248Z,4.70
2023-01-10T13:10:43.015Z,4.85
2023-01-10T13:12:55.614Z,4.81
2023-01-10T13:15:18.663Z,4.81
2023-01-10T13:17:29.856Z,4.77
2023-01-10T13:19:32.482Z,4.82
2023-01-10T13:21:35.401Z,4.80
2023-01-10T13:23:48.088Z,4.81
2023-01-10T13:25:59.912Z,4.76
2023-01-10T13:28:06.875Z,4.78
2023-01-10T13:30:26.556Z,4.82
2023-01-10T13:32:36.707Z,4.84
2023-01-10T13:34:39.158Z,4.80
2023-01-10T13:36:51.381Z,4.81
2023-01-10T13:39:01.272Z,4.82
2023-01-10T13:41:29.659Z,4.81
2023-01-10T13:43:39.264Z,4.91
2023-01-10T13:45:43.259Z,4.86
2023-01-10T13:47:48.462Z,4.87
2023-01-10T13:49:50.845Z,4.92
2023-01-10T13:52:33.046Z,4.83
2023-01-10T13:54:35.423Z,4.81
2023-01-10T13:56:41.371Z,4.88
2023-01-10T13:59:02.546Z,4.89
2023-01-10T14:01:23.636Z,4.89
2023-01-10T14:03:47.426Z,4.94
2023-01-10T14:05:51.199Z,4.91
2023-01-10T14:07:55.095Z,4.99
2023-01-10T14:10:05.621Z,4.94
2023-01-10T14:12:19.490Z,4.84
2023-01-10T14:14:23.591Z,4.96
2023-01-10T14:18:46.205Z,4.99
2023-01-10T14:21:00.525Z,4.98
2023-01-10T14:23:16.063Z,4.93
2023-01-10T14:25:21.134Z,4.98
2023-01-10T14:27:24.035Z,4.98
2023-01-10T14:29:31.714Z,4.99
2023-01-10T14:31:37.251Z,4.97
2023-01-10T14:33:43.600Z,4.96
2023-01-10T14:35:50.668Z,4.98
2023-01-10T14:37:57.092Z,5.00
2023-01-10T14:39:59.590Z,5.01
2023-01-10T14:42:06.942Z,5.07
2023-01-10T14:44:33.069Z,5.04
2023-01-10T14:46:51.727Z,5.05
2023-01-10T14:48:57.287Z,5.05
2023-01-10T14:51:10.107Z,5.16
2023-01-10T14:53:29.864Z,5.06
2023-01-10T14:55:32.575Z,5.14
2023-01-10T14:57:34.929Z,5.06
2023-01-10T14:59:38.085Z,5.05
2023-01-10T15:01:40.827Z,5.11
2023-01-10T15:03:47.298Z,5.07
2023-01-10T15:05:52.480Z,5.10
2023-01-10T15:07:56.576Z,5.12
2023-01-10T15:10:02.977Z,5.11
2023-01-10T15:12:09.710Z,5.08
2023-01-10T15:14:17.862Z,5.22
2023-01-10T15:18:37.631Z,5.11
2023-01-10T15:20:40.560Z,5.16
2023-01-10T15:22:54.477Z,5.09
2023-01-10T15:25:02.857Z,5.09
2023-01-10T15:27:11.680Z,5.11
2023-01-10T15:29:23.521Z,5.10
2023-01-10T15:31:25.949Z,5.18
2023-01-10T15:33:32.944Z,5.10
2023-01-10T15:35:36.884Z,5.05
2023-01-10T15:37:42.450Z,5.06
2023-01-10T15:39:47.506Z,5.09
2023-01-10T15:41:56.833Z,5.07
2023-01-10T15:44:39.172Z,5.05
2023-01-10T15:46:57.263Z,5.14
2023-01-10T15:49:02.914Z,5.20
2023-01-10T15:51:11.437Z,5.16
2023-01-10T15:53:14.207Z,5.08
2023-01-10T15:55:37.915Z,5.10
2023-01-10T15:57:40.371Z,5.17
2023-01-10T15:59:50.175Z,5.19
2023-01-10T16:01:55.140Z,5.10
2023-01-10T16:04:01.406Z,5.20
2023-01-10T16:06:09.143Z,5.22
2023-01-10T16:08:12.025Z,5.24
2023-01-10T16:10:26.757Z,5.21
2023-01-10T16:12:54.167Z,5.19
2023-01-10T16:14:56.780Z,5.25
2023-01-10T16:17:00.458Z,5.24
2023-01-10T16:19:03.216Z,5.24
2023-01-10T16:21:06.323Z,5.30
2023-01-10T16:23:18.213Z,5.29
2023-01-10T16:25:28.779Z,5.33
2023-01-10T16:27:31.510Z,5.38
2023-01-10T16:29:34.321Z,5.39
2023-01-10T16:31:36.681Z,5.38
2023-01-10T16:33:39.112Z,5.46
2023-01-10T16:35:53.142Z,5.40
2023-01-10T16:37:57.347Z,5.38
2023-01-10T16:39:59.666Z,5.36
2023-01-10T16:42:20.946Z,5.44
2023-01-10T16:44:23.349Z,5.46
2023-01-10T16:46:25.887Z,5.40
2023-01-10T16:48:30.759Z,5.41
2023-01-10T16:50:33.323Z,5.39
2023-01-10T16:52:35.648Z,5.39
2023-01-10T16:54:39.109Z,5.42
2023-01-10T16:56:42.577Z,5.40
2023-01-10T16:58:46.189Z,5.49
2023-01-10T17:00:51.557Z,5.57
2023-01-10T17:02:54.088Z,5.50
2023-01-10T17:04:57.998Z,5.44
2023-01-10T17:07:00.782Z,5.47
2023-01-10T17:09:03.662Z,5.51
2023-01-10T17:11:10.946Z,5.46
2023-01-10T17:13:17.621Z,5.43
2023-01-10T17:15:20.080Z,5.46
2023-01-10T17:17:22.409Z,5.48
2023-01-10T17:19:25.334Z,5.46
2023-01-10T17:21:27.828Z,5.46
2023-01-10T17:23:30.824Z,5.37
2023-01-10T17:25:33.420Z,5.47
2023-01-10T17:27:35.824Z,5.46
2023-01-10T17:29:38.508Z,5.50
2023-01-10T17:31:41.575Z,5.50
2023-01-10T17:33:43.973Z,5.46
2023-01-10T17:35:46.339Z,5.53
2023-01-10T17:37:49.350Z,5.52
2023-01-10T17:39:51.739Z,5.55
2023-01-10T17:41:54.244Z,5.58
2023-01-10T17:43:56.929Z,5.56
2023-01-10T17:45:59.318Z,5.58
2023-01-10T17:48:01.634Z,5.64
2023-01-10T17:50:04.600Z,5.69
2023-01-10T17:52:06.940Z,5.67
2023-01-10T17:54:09.285Z,5.61
2023-01-10T17:56:12.234Z,5.69
2023-01-10T17:58:15.387Z,5.64
2023-01-10T18:00:18.797Z,5.60
2023-01-10T18:02:21.688Z,5.66
2023-01-10T18:04:24.180Z,5.64
2023-01-10T18:06:26.550Z,5.72
2023-01-10T18:08:29.433Z,5.71
2023-01-10T18:10:34.231Z,5.71
2023-01-10T18:12:40.855Z,5.62
2023-01-10T18:14:43.806Z,5.65
2023-01-10T18:16:46.995Z,5.64
2023-01-10T18:18:50.033Z,5.66
2023-01-10T18:20:57.858Z,5.71
2023-01-10T18:23:18.923Z,5.67
2023-01-10T18:25:21.635Z,5.66
2023-01-10T18:27:26.258Z,5.66
2023-01-10T18:29:29.107Z,5.68
2023-01-10T18:31:31.564Z,5.65
2023-01-10T18:33:34.807Z,5.66
2023-01-10T18:35:39.181Z,5.67
2023-01-10T18:37:41.763Z,5.73
2023-01-10T18:39:47.414Z,5.69
2023-01-10T18:41:50.062Z,5.68
2023-01-10T18:43:52.786Z,5.72
2023-01-10T18:46:13.307Z,5.74
2023-01-10T18:48:16.611Z,5.70
2023-01-10T18:50:19.293Z,5.65
2023-01-10T18:52:21.987Z,5.74
2023-01-10T18:54:24.632Z,5.77
2023-01-10T18:56:27.667Z,5.79
2023-01-10T18:58:33.477Z,5.70
2023-01-10T19:00:36.262Z,5.75
2023-01-10T19:02:39.011Z,5.75
2023-01-10T19:04:42.037Z,5.79
2023-01-10T19:06:44.708Z,5.74
2023-01-10T19:08:48.027Z,5.78
2023-01-10T19:11:12.456Z,5.68
2023-01-10T19:13:17.421Z,5.72
2023-01-10T19:15:19.903Z,5.71
2023-01-10T19:17:25.332Z,5.78
2023-01-10T19:19:32.115Z,5.78
2023-01-10T19:21:38.356Z,5.79
2023-01-10T19:23:45.126Z,5.74
2023-01-10T19:25:48.699Z,5.78
2023-01-10T19:27:52.722Z,5.77
2023-01-10T19:29:55.531Z,5.79
2023-01-10T19:31:59.521Z,5.84
2023-01-10T19:34:02.577Z,5.86
2023-01-10T19:36:07.864Z,5.85
2023-01-10T19:38:11.489Z,5.91
2023-01-10T19:40:14.843Z,5.91
2023-01-10T19:42:18.227Z,5.86
2023-01-10T19:44:21.369Z,5.79
2023-01-10T19:46:24.068Z,5.81
2023-01-10T19:48:27.490Z,5.79
2023-01-10T19:50:30.005Z,5.71
2023-01-10T19:52:32.708Z,5.76
2023-01-10T19:54:37.809Z,5.73
2023-01-10T19:56:40.890Z,5.77
2023-01-10T19:58:43.495Z,5.73
2023-01-10T20:00:46.247Z,5.73
2023-01-10T20:02:50.410Z,5.76
2023-01-10T20:04:53.040Z,5.91
2023-01-10T20:06:55.758Z,5.81
2023-01-10T20:08:58.622Z,5.88
2023-01-10T20:11:05.961Z,5.92
2023-01-10T20:13:10.321Z,5.87
2023-01-10T20:15:13.872Z,5.99
2023-01-10T20:17:16.638Z,5.95
2023-01-10T20:19:20.529Z,6.01
2023-01-10T20:21:23.480Z,5.98
2023-01-10T20:23:26.111Z,5.94
2023-01-10T20:25:29.019Z,5.87
2023-01-10T20:27:32.951Z,6.00
2023-01-10T20:29:39.137Z,5.88
2023-01-10T20:31:43.370Z,6.02
2023-01-10T20:33:46.719Z,5.93
2023-01-10T20:36:04.760Z,6.01
2023-01-10T20:38:07.437Z,6.05
2023-01-10T20:40:12.001Z,5.95
2023-01-10T20:42:14.664Z,6.01
2023-01-10T20:44:17.265Z,5.94
2023-01-10T20:46:25.365Z,5.86
2023-01-10T20:48:28.012Z,5.85
2023-01-10T20:50:30.339Z,5.87
2023-01-10T20:52:32.975Z,5.82
2023-01-10T20:54:36.318Z,5.81
2023-01-10T20:56:39.013Z,5.80
2023-01-10T20:58:41.754Z,5.76
2023-01-10T21:00:44.481Z,5.70
2023-01-10T21:02:47.116Z,5.73
2023-01-10T21:04:50.696Z,5.67
2023-01-10T21:06:53.899Z,5.64
2023-01-10T21:08:56.400Z,5.65
2023-01-10T21:10:59.228Z,5.65
2023-01-10T21:13:01.554Z,5.71
2023-01-10T21:15:04.482Z,5.63
2023-01-10T21:17:07.165Z,5.67
2023-01-10T21:19:13.606Z,5.67
2023-01-10T21:21:18.929Z,5.62
2023-01-10T21:23:22.919Z,5.55
2023-01-10T21:25:25.365Z,5.58
2023-01-10T21:27:30.915Z,5.57
2023-01-10T21:29:33.715Z,5.58
2023-01-10T21:31:36.126Z,5.52
2023-01-10T21:33:38.561Z,5.52
2023-01-10T21:35:41.543Z,5.52
2023-01-10T21:37:44.025Z,5.55
2023-01-10T21:39:46.367Z,5.54
2023-01-10T21:42:07.608Z,5.48
2023-01-10T21:44:09.982Z,5.47
2023-01-10T21:46:13.072Z,5.47
2023-01-10T21:48:15.774Z,5.46
2023-01-10T21:50:22.156Z,5.45
2023-01-10T21:52:25.039Z,5.49
2023-01-10T21:54:27.631Z,5.47
2023-01-10T21:56:30.000Z,5.39
2023-01-10T21:58:32.990Z,5.35
2023-01-10T22:00:36.466Z,5.38
2023-01-10T22:02:39.202Z,5.28
2023-01-10T22:04:45.174Z,5.27
2023-01-10T22:06:47.844Z,5.31
2023-01-10T22:08:52.906Z,5.20
2023-01-10T22:10:55.321Z,5.07
2023-01-10T22:12:57.623Z,5.02
2023-01-10T22:15:00.258Z,4.92
2023-01-10T22:17:04.113Z,4.93
2023-01-10T22:19:06.567Z,4.83
2023-01-10T22:21:09.284Z,4.80
2023-01-10T22:23:11.571Z,4.79
2023-01-10T22:25:13.960Z,4.76
2023-01-10T22:27:17.273Z,4.69
2023-01-10T22:29:20.515Z,4.69
2023-01-10T22:31:22.899Z,4.57
2023-01-10T22:33:30.013Z,4.60
2023-01-10T22:35:33.774Z,4.60
2023-01-10T22:37:36.459Z,4.55
2023-01-10T22:39:39.067Z,4.52
2023-01-10T22:41:41.680Z,4.47
2023-01-10T22:43:44.909Z,4.46
2023-01-10T22:45:47.833Z,4.46
2023-01-10T22:47:50.531Z,4.51
2023-01-10T22:49:52.937Z,4.46
2023-01-10T22:51:55.521Z,4.44
2023-01-10T22:53:59.319Z,4.43
2023-01-10T22:56:06.506Z,4.43
2023-01-10T22:58:09.140Z,4.37
2023-01-10T23:02:34.809Z,4.38
2023-01-10T23:04:37.549Z,4.25
2023-01-10T23:06:39.831Z,4.25
2023-01-10T23:08:42.623Z,4.22
2023-01-10T23:10:46.829Z,4.29
2023-01-10T23:12:49.516Z,4.21
2023-01-10T23:14:51.891Z,4.24
2023-01-10T23:16:55.179Z,4.18
2023-01-10T23:18:58.434Z,4.20
